Time;durP1;ratioP1;P1;durP2;ratioP2;P2;SDS_P1;SDS_P2;PMS_P1;PMS_P2;Temp;Humidity;BMP_temperature;BMP_pressure;BME280_temperature;BME280_humidity;BME280_pressure;Samples;Min_cycle;Max_cycle;Signal;HPM_P1;HPM_P2
2023/12/23 00:00:54;;;;;;;0.73;0.30;;;1.40;99.90;;;;;;5226710;28;20819;-51
2023/12/23 00:03:25;;;;;;;1.73;0.27;;;1.50;99.90;;;;;;5225287;28;20286;-51
2023/12/23 00:05:55;;;;;;;0.47;0.47;;;1.50;99.90;;;;;;5221247;28;20191;-53
2023/12/23 00:08:26;;;;;;;2.57;0.70;;;1.40;99.90;;;;;;5216064;28;20658;-50
2023/12/23 00:10:58;;;;;;;1.70;0.50;;;1.30;99.90;;;;;;5211728;28;20221;-50
2023/12/23 00:13:29;;;;;;;2.27;0.40;;;1.30;99.90;;;;;;5213806;28;20219;-54
2023/12/23 00:16:00;;;;;;;0.83;0.37;;;1.20;99.90;;;;;;5224625;28;20437;-54
2023/12/23 00:18:30;;;;;;;1.80;0.43;;;1.30;99.90;;;;;;5211390;28;20439;-53
2023/12/23 00:21:02;;;;;;;1.30;0.40;;;1.30;99.90;;;;;;5221642;28;20479;-49
2023/12/23 00:23:32;;;;;;;0.50;0.50;;;1.30;99.90;;;;;;5226700;28;20698;-53
2023/12/23 00:26:04;;;;;;;3.07;0.40;;;1.30;99.90;;;;;;5223684;28;20437;-50
2023/12/23 00:28:34;;;;;;;1.43;0.40;;;1.40;99.90;;;;;;5225109;28;20582;-53
2023/12/23 00:31:05;;;;;;;0.40;0.40;;;1.40;99.90;;;;;;5215644;28;20452;-49
2023/12/23 00:33:36;;;;;;;0.40;0.40;;;1.50;99.90;;;;;;5225178;28;20209;-49
2023/12/23 00:36:07;;;;;;;1.03;0.60;;;1.40;99.90;;;;;;5214096;28;20281;-48
2023/12/23 00:38:38;;;;;;;1.67;0.50;;;1.40;99.90;;;;;;5232700;28;20195;-49
2023/12/23 00:41:08;;;;;;;0.30;0.20;;;1.30;99.90;;;;;;5216401;28;20478;-49
2023/12/23 00:43:39;;;;;;;0.50;0.50;;;1.30;99.90;;;;;;5214879;28;20457;-52
2023/12/23 00:46:10;;;;;;;8.57;0.63;;;1.30;99.90;;;;;;5223680;28;20210;-51
2023/12/23 00:48:41;;;;;;;0.30;0.30;;;1.40;99.90;;;;;;5213360;28;20175;-49
2023/12/23 00:51:11;;;;;;;0.90;0.40;;;1.40;99.90;;;;;;5211523;28;20191;-49
2023/12/23 00:53:42;;;;;;;0.60;0.40;;;1.40;99.90;;;;;;5225365;28;20285;-50
2023/12/23 00:56:23;;;;;;;0.20;0.20;;;1.40;99.90;;;;;;5211740;28;20186;-48
2023/12/23 00:58:54;;;;;;;1.17;0.40;;;1.40;99.90;;;;;;5222144;28;20193;-51
2023/12/23 01:01:24;;;;;;;0.50;0.40;;;1.50;99.90;;;;;;5225991;28;20457;-51
2023/12/23 01:03:55;;;;;;;0.93;0.40;;;1.50;99.90;;;;;;5209976;28;20182;-54
2023/12/23 01:06:26;;;;;;;0.30;0.30;;;1.40;99.90;;;;;;5211514;28;20225;-53
2023/12/23 01:08:57;;;;;;;2.60;0.60;;;1.40;99.90;;;;;;5218681;28;20441;-49
2023/12/23 01:11:28;;;;;;;1.17;0.40;;;1.40;99.90;;;;;;5211169;28;20192;-49
2023/12/23 01:13:58;;;;;;;1.60;0.60;;;1.20;99.90;;;;;;5216672;28;20195;-50
2023/12/23 01:16:29;;;;;;;1.43;0.83;;;1.20;99.90;;;;;;5224392;28;20542;-52
2023/12/23 01:19:00;;;;;;;0.60;0.57;;;1.20;99.90;;;;;;5219782;28;20202;-49
2023/12/23 01:21:31;;;;;;;0.70;0.70;;;1.20;99.90;;;;;;5206246;28;20467;-53
2023/12/23 01:24:02;;;;;;;1.60;0.63;;;1.20;99.90;;;;;;5212106;28;20193;-48
2023/12/23 01:26:33;;;;;;;0.70;0.70;;;1.20;99.90;;;;;;5223661;28;20218;-50
2023/12/23 01:29:04;;;;;;;0.50;0.50;;;1.20;99.90;;;;;;5223074;28;21041;-48
2023/12/23 01:31:34;;;;;;;0.40;0.40;;;1.30;99.90;;;;;;5222174;28;20199;-49
2023/12/23 01:34:05;;;;;;;2.73;0.83;;;1.40;99.90;;;;;;5212667;28;20689;-50
2023/12/23 01:36:36;;;;;;;3.70;1.00;;;1.30;99.90;;;;;;5209308;28;20187;-49
2023/12/23 01:39:07;;;;;;;2.00;1.00;;;1.40;99.90;;;;;;5220631;28;20281;-50
2023/12/23 01:41:38;;;;;;;1.53;0.70;;;1.40;99.90;;;;;;5223852;28;20886;-49
2023/12/23 01:44:09;;;;;;;2.20;0.60;;;1.40;99.90;;;;;;5190757;28;20436;-50
2023/12/23 01:46:40;;;;;;;7.87;1.37;;;1.50;99.90;;;;;;5224301;28;20175;-50
2023/12/23 01:49:11;;;;;;;5.47;0.80;;;1.40;99.90;;;;;;5216330;28;20179;-48
2023/12/23 01:51:41;;;;;;;3.20;0.73;;;1.40;99.90;;;;;;5224072;28;20507;-49
2023/12/23 01:54:13;;;;;;;1.43;0.80;;;1.50;99.90;;;;;;5209992;28;20561;-50
2023/12/23 01:56:44;;;;;;;6.13;0.90;;;1.40;99.90;;;;;;5224555;28;20182;-49
2023/12/23 01:59:17;;;;;;;1.43;0.60;;;1.40;99.90;;;;;;5202663;28;20446;-48
2023/12/23 02:01:48;;;;;;;2.20;1.00;;;1.50;99.90;;;;;;5214423;28;20466;-49
2023/12/23 02:04:19;;;;;;;4.40;1.00;;;1.50;99.90;;;;;;5207620;28;20461;-50
2023/12/23 02:06:50;;;;;;;11.93;1.20;;;1.50;99.90;;;;;;5192077;28;20468;-50
2023/12/23 02:09:21;;;;;;;5.60;0.80;;;1.50;99.90;;;;;;5219903;28;20236;-50
2023/12/23 02:11:56;;;;;;;9.50;1.30;;;1.50;99.90;;;;;;5196172;28;20218;-52
2023/12/23 02:14:36;;;;;;;1.80;0.77;;;1.50;99.90;;;;;;5218088;28;20192;-53
2023/12/23 02:17:08;;;;;;;2.33;0.60;;;1.50;99.90;;;;;;5225589;28;20460;-50
2023/12/23 02:19:38;;;;;;;3.33;0.77;;;1.50;99.90;;;;;;5228680;28;20463;-49
2023/12/23 02:22:09;;;;;;;1.63;0.50;;;1.40;99.90;;;;;;5216222;28;21000;-49
2023/12/23 02:24:40;;;;;;;0.60;0.60;;;1.30;99.90;;;;;;5221376;28;21011;-50
2023/12/23 02:27:14;;;;;;;0.30;0.30;;;1.20;99.90;;;;;;5222513;28;20426;-51
2023/12/23 02:29:46;;;;;;;0.47;0.47;;;1.10;99.90;;;;;;5219952;28;20181;-52
2023/12/23 02:32:18;;;;;;;3.83;1.07;;;1.00;99.90;;;;;;5212268;28;20476;-49
2023/12/23 02:34:50;;;;;;;4.30;0.67;;;0.90;99.90;;;;;;5220181;28;20445;-53
2023/12/23 02:37:20;;;;;;;1.73;0.70;;;0.90;99.90;;;;;;5207104;28;20532;-49
2023/12/23 02:39:51;;;;;;;3.03;0.97;;;0.90;99.90;;;;;;5212291;28;20552;-51
2023/12/23 02:42:22;;;;;;;2.30;0.70;;;0.90;99.90;;;;;;5223470;28;20218;-51
2023/12/23 02:44:53;;;;;;;1.73;0.60;;;0.90;99.90;;;;;;5219930;28;20469;-51
2023/12/23 02:47:24;;;;;;;2.93;0.93;;;0.90;99.90;;;;;;5207901;28;21040;-54
2023/12/23 02:49:55;;;;;;;9.03;0.97;;;0.80;99.90;;;;;;5219588;28;20198;-51
2023/12/23 02:52:25;;;;;;;3.03;0.63;;;0.80;99.90;;;;;;5222910;28;20499;-51
2023/12/23 02:54:56;;;;;;;6.70;1.00;;;0.80;99.90;;;;;;5219894;28;20205;-52
2023/12/23 02:57:27;;;;;;;1.17;0.50;;;0.80;99.90;;;;;;5221588;28;20258;-51
2023/12/23 02:59:58;;;;;;;5.07;1.07;;;0.90;99.90;;;;;;5206497;28;20643;-51
2023/12/23 03:02:28;;;;;;;1.07;0.40;;;0.80;99.90;;;;;;5220884;28;20210;-51
2023/12/23 03:04:59;;;;;;;3.43;0.63;;;0.90;99.90;;;;;;5217962;28;20325;-51
2023/12/23 03:07:30;;;;;;;1.20;0.47;;;1.00;99.90;;;;;;5220676;28;20175;-51
2023/12/23 03:10:02;;;;;;;1.47;0.60;;;1.00;99.90;;;;;;5216732;28;20467;-52
2023/12/23 03:12:33;;;;;;;2.83;0.90;;;0.90;99.90;;;;;;5213001;28;20301;-53
2023/12/23 03:15:04;;;;;;;0.30;0.30;;;0.80;99.90;;;;;;5221267;28;20497;-52
2023/12/23 03:17:35;;;;;;;3.00;0.50;;;0.80;99.90;;;;;;5217134;28;20204;-52
2023/12/23 03:20:07;;;;;;;0.80;0.80;;;0.70;99.90;;;;;;5212113;28;20926;-51
2023/12/23 03:22:38;;;;;;;4.43;0.60;;;0.60;99.90;;;;;;5221028;28;20234;-51
2023/12/23 03:25:09;;;;;;;1.07;0.57;;;0.60;99.90;;;;;;5220733;28;20437;-51
2023/12/23 03:27:40;;;;;;;1.50;0.47;;;0.60;99.90;;;;;;5217274;28;20444;-51
2023/12/23 03:30:11;;;;;;;1.93;0.53;;;0.50;99.90;;;;;;5216767;28;20850;-50
2023/12/23 03:32:42;;;;;;;0.70;0.47;;;0.60;99.90;;;;;;5210586;28;20694;-51
2023/12/23 03:35:13;;;;;;;0.50;0.30;;;0.60;99.90;;;;;;5221534;28;20424;-50
2023/12/23 03:37:45;;;;;;;4.27;0.97;;;0.60;99.90;;;;;;5222050;28;20436;-51
2023/12/23 03:40:16;;;;;;;1.33;0.60;;;0.70;99.90;;;;;;5220034;28;20780;-52
2023/12/23 03:42:46;;;;;;;0.43;0.43;;;0.60;99.90;;;;;;5218866;28;20465;-48
2023/12/23 03:45:17;;;;;;;4.50;0.73;;;0.60;99.90;;;;;;5214773;28;20436;-50
2023/12/23 03:47:49;;;;;;;1.33;0.70;;;0.60;99.90;;;;;;5232783;28;20186;-51
2023/12/23 03:50:20;;;;;;;1.70;0.60;;;0.70;99.90;;;;;;5218219;28;20259;-50
2023/12/23 03:52:51;;;;;;;0.40;0.30;;;0.70;99.90;;;;;;5219064;28;20529;-49
2023/12/23 03:55:29;;;;;;;3.83;0.90;;;0.70;99.90;;;;;;5206181;28;20612;-49
2023/12/23 03:57:59;;;;;;;1.90;0.50;;;0.80;99.90;;;;;;5222964;28;20551;-49
2023/12/23 04:00:30;;;;;;;2.40;0.70;;;0.70;99.90;;;;;;5205051;28;20443;-51
2023/12/23 04:03:01;;;;;;;2.03;0.80;;;0.80;99.90;;;;;;5209067;28;20696;-53
2023/12/23 04:05:32;;;;;;;3.70;0.90;;;0.80;99.90;;;;;;5207496;28;20434;-50
2023/12/23 04:08:03;;;;;;;2.53;1.07;;;0.80;99.90;;;;;;5208631;28;20186;-55
2023/12/23 04:10:34;;;;;;;2.10;0.90;;;0.90;99.90;;;;;;5220855;28;20664;-55
2023/12/23 04:13:04;;;;;;;7.30;0.80;;;0.90;99.90;;;;;;5222264;28;20473;-50
2023/12/23 04:15:35;;;;;;;2.73;1.30;;;0.90;99.90;;;;;;5219727;28;20601;-50
2023/12/23 04:18:06;;;;;;;12.50;1.13;;;0.90;99.90;;;;;;5216992;28;20218;-50
2023/12/23 04:20:40;;;;;;;3.00;1.10;;;0.90;99.90;;;;;;5222918;28;20198;-50
2023/12/23 04:23:11;;;;;;;7.30;0.97;;;1.00;99.90;;;;;;5210846;28;20502;-50
2023/12/23 04:25:42;;;;;;;7.00;1.20;;;1.00;99.90;;;;;;5213839;28;20951;-51
2023/12/23 04:28:13;;;;;;;3.57;1.00;;;1.10;99.90;;;;;;5223940;28;20198;-49
2023/12/23 04:30:43;;;;;;;3.40;0.80;;;1.20;99.90;;;;;;5218507;28;20931;-50
2023/12/23 04:33:14;;;;;;;2.93;1.00;;;1.20;99.90;;;;;;5221257;28;20460;-50
2023/12/23 04:35:45;;;;;;;2.63;0.70;;;1.30;99.90;;;;;;5209308;28;20183;-49
2023/12/23 04:38:16;;;;;;;8.23;1.30;;;1.30;99.90;;;;;;5206961;28;20275;-50
2023/12/23 04:40:47;;;;;;;18.73;1.43;;;1.30;99.90;;;;;;5206166;28;20528;-51
2023/12/23 04:43:17;;;;;;;1.33;0.90;;;1.30;99.90;;;;;;5208766;28;20556;-50
2023/12/23 04:45:48;;;;;;;4.40;1.43;;;1.30;99.90;;;;;;5210019;28;20185;-50
2023/12/23 04:48:19;;;;;;;17.33;1.73;;;1.40;99.90;;;;;;5206981;28;20185;-51
2023/12/23 04:50:50;;;;;;;6.17;1.23;;;1.40;99.90;;;;;;5225507;28;20210;-53
2023/12/23 04:53:22;;;;;;;7.10;1.60;;;1.40;99.90;;;;;;5216208;28;20198;-51
2023/12/23 04:55:53;;;;;;;9.33;1.50;;;1.40;99.90;;;;;;5208493;28;20179;-50
2023/12/23 04:58:24;;;;;;;2.93;1.10;;;1.50;99.90;;;;;;5224725;28;20432;-50
2023/12/23 05:00:54;;;;;;;10.83;1.57;;;1.50;99.90;;;;;;5224333;28;20238;-50
2023/12/23 05:03:26;;;;;;;10.17;1.50;;;1.50;99.90;;;;;;5214494;28;20457;-51
2023/12/23 05:05:57;;;;;;;2.53;1.20;;;1.50;99.90;;;;;;5223968;28;20211;-51
2023/12/23 05:08:27;;;;;;;9.80;2.00;;;1.50;99.90;;;;;;5206219;28;20521;-52
2023/12/23 05:10:59;;;;;;;1.70;1.20;;;1.60;99.90;;;;;;5225263;28;20232;-52
2023/12/23 05:13:30;;;;;;;10.77;2.03;;;1.70;99.90;;;;;;5213404;28;20748;-50
2023/12/23 05:16:00;;;;;;;12.83;1.60;;;1.70;99.90;;;;;;5208263;28;20437;-51
2023/12/23 05:18:31;;;;;;;6.40;1.50;;;1.70;99.90;;;;;;5224599;28;20190;-52
2023/12/23 05:21:02;;;;;;;14.47;2.10;;;1.70;99.90;;;;;;5220613;28;20215;-50
2023/12/23 05:23:33;;;;;;;7.77;1.80;;;1.70;99.90;;;;;;5205655;28;20264;-51
2023/12/23 05:26:03;;;;;;;4.83;1.60;;;1.70;99.90;;;;;;5225861;28;20175;-51
2023/12/23 05:28:34;;;;;;;11.23;2.23;;;1.70;99.90;;;;;;5221688;28;20635;-51
2023/12/23 05:31:05;;;;;;;5.50;1.67;;;1.80;99.90;;;;;;5211312;28;20217;-52
2023/12/23 05:33:36;;;;;;;10.23;1.90;;;1.80;99.90;;;;;;5221519;28;20218;-51
2023/12/23 05:36:07;;;;;;;7.73;1.63;;;1.70;99.90;;;;;;5216782;28;20237;-51
2023/12/23 05:38:38;;;;;;;12.00;2.30;;;1.80;99.90;;;;;;5223552;28;20218;-50
2023/12/23 05:41:09;;;;;;;17.97;2.70;;;1.80;99.90;;;;;;5205423;28;20461;-51
2023/12/23 05:43:40;;;;;;;6.30;1.90;;;1.80;99.90;;;;;;5221787;28;20645;-51
2023/12/23 05:46:10;;;;;;;8.20;1.60;;;1.90;99.90;;;;;;5213846;28;20476;-51
2023/12/23 05:48:41;;;;;;;23.23;2.33;;;1.90;99.90;;;;;;5225009;28;20207;-51
2023/12/23 05:51:12;;;;;;;4.70;1.43;;;2.00;99.90;;;;;;5216895;28;20190;-50
2023/12/23 05:53:43;;;;;;;9.63;2.93;;;2.10;99.90;;;;;;5223464;28;20206;-50
2023/12/23 05:56:13;;;;;;;9.87;1.90;;;2.10;99.90;;;;;;5205237;28;20179;-51
2023/12/23 05:58:44;;;;;;;9.70;2.60;;;2.20;99.90;;;;;;5212720;28;20189;-52
2023/12/23 06:01:15;;;;;;;17.50;2.00;;;2.30;99.90;;;;;;5206198;28;20710;-51
2023/12/23 06:03:46;;;;;;;7.13;1.70;;;2.20;99.90;;;;;;5193827;28;20195;-52
2023/12/23 06:06:16;;;;;;;10.57;1.73;;;2.20;99.90;;;;;;5210164;28;20434;-51
2023/12/23 06:08:48;;;;;;;7.17;2.07;;;2.20;99.90;;;;;;5190460;28;20266;-51
2023/12/23 06:11:18;;;;;;;7.50;1.37;;;2.30;99.90;;;;;;5221363;28;20189;-51
2023/12/23 06:13:49;;;;;;;2.93;1.57;;;2.30;99.90;;;;;;5219437;28;20468;-51
2023/12/23 06:16:20;;;;;;;11.30;1.43;;;2.30;99.90;;;;;;5221945;28;20214;-52
2023/12/23 06:18:50;;;;;;;9.60;1.97;;;2.40;99.90;;;;;;5202443;28;20209;-50
2023/12/23 06:21:24;;;;;;;4.03;1.03;;;2.40;99.90;;;;;;5219771;28;20202;-53
2023/12/23 06:23:54;;;;;;;9.63;1.60;;;2.40;99.90;;;;;;5204614;28;20183;-51
2023/12/23 06:26:26;;;;;;;10.93;1.50;;;2.30;99.90;;;;;;5214314;28;20452;-50
2023/12/23 06:28:56;;;;;;;8.67;1.77;;;2.30;99.90;;;;;;5221670;28;20183;-50
2023/12/23 06:31:27;;;;;;;4.23;1.30;;;2.40;99.90;;;;;;5220839;28;20502;-51
2023/12/23 06:33:58;;;;;;;11.93;1.80;;;2.30;99.90;;;;;;5207800;28;20187;-50
2023/12/23 06:36:29;;;;;;;5.13;1.80;;;2.40;99.90;;;;;;5213822;28;20183;-50
2023/12/23 06:39:00;;;;;;;15.33;1.43;;;2.40;99.90;;;;;;5213411;28;20191;-50
2023/12/23 06:41:31;;;;;;;6.73;1.60;;;2.40;99.90;;;;;;5224427;28;20457;-50
2023/12/23 06:44:02;;;;;;;3.10;1.80;;;2.30;99.90;;;;;;5203867;28;20266;-50
2023/12/23 06:46:32;;;;;;;9.53;2.10;;;2.30;99.90;;;;;;5222316;28;20621;-51
2023/12/23 06:49:03;;;;;;;5.57;1.90;;;2.30;99.90;;;;;;5221081;28;20518;-51
2023/12/23 06:51:34;;;;;;;10.53;1.63;;;2.40;99.90;;;;;;5221505;28;20187;-50
2023/12/23 06:54:05;;;;;;;7.30;2.00;;;2.40;99.90;;;;;;5208995;28;20186;-51
2023/12/23 06:56:36;;;;;;;10.63;2.13;;;2.30;99.90;;;;;;5204688;28;20194;-51
2023/12/23 06:59:09;;;;;;;12.27;3.07;;;2.40;99.90;;;;;;5213733;28;20434;-50
2023/12/23 07:01:40;;;;;;;6.13;1.63;;;2.40;99.90;;;;;;5221131;28;20237;-50
2023/12/23 07:04:11;;;;;;;11.93;2.30;;;2.50;99.90;;;;;;5211619;28;20848;-51
2023/12/23 07:06:42;;;;;;;8.80;1.83;;;2.50;99.90;;;;;;5213654;28;20980;-51
2023/12/23 07:09:12;;;;;;;9.23;1.43;;;2.50;99.90;;;;;;5211349;28;20175;-51
2023/12/23 07:11:44;;;;;;;5.80;1.10;;;2.50;99.90;;;;;;5221140;28;20214;-58
2023/12/23 07:14:15;;;;;;;5.27;1.80;;;2.60;99.90;;;;;;5224092;28;20179;-51
2023/12/23 07:16:46;;;;;;;4.63;1.93;;;2.60;99.90;;;;;;5221892;28;20425;-51
2023/12/23 07:19:17;;;;;;;2.00;1.63;;;2.60;99.90;;;;;;5222709;28;20764;-52
2023/12/23 07:21:52;;;;;;;4.77;1.03;;;2.60;99.90;;;;;;5208588;28;20465;-51
2023/12/23 07:24:23;;;;;;;3.07;1.30;;;2.70;99.90;;;;;;5216102;28;20202;-52
2023/12/23 07:26:54;;;;;;;4.60;0.93;;;2.70;99.90;;;;;;5220129;28;20417;-51
2023/12/23 07:29:25;;;;;;;6.13;1.33;;;2.70;99.90;;;;;;5211992;28;20214;-50
2023/12/23 07:31:56;;;;;;;5.37;1.37;;;2.70;99.90;;;;;;5206666;28;20514;-51
2023/12/23 07:34:26;;;;;;;5.83;1.10;;;2.70;99.90;;;;;;5198273;28;20209;-51
2023/12/23 07:36:57;;;;;;;4.53;0.87;;;2.70;99.90;;;;;;5216577;28;20184;-50
2023/12/23 07:39:28;;;;;;;3.63;1.37;;;2.70;99.90;;;;;;5211944;28;20191;-52
2023/12/23 07:41:59;;;;;;;2.10;1.00;;;2.60;99.90;;;;;;5218405;28;20206;-50
2023/12/23 07:44:30;;;;;;;7.60;1.30;;;2.70;99.90;;;;;;5203720;28;20202;-50
2023/12/23 07:47:00;;;;;;;6.87;1.30;;;2.60;99.90;;;;;;5217977;28;21000;-52
2023/12/23 07:49:32;;;;;;;6.37;0.90;;;2.60;99.90;;;;;;5219874;28;20175;-50
2023/12/23 07:52:03;;;;;;;8.90;1.50;;;2.70;99.90;;;;;;5218643;28;20198;-48
2023/12/23 07:54:34;;;;;;;4.00;1.10;;;2.70;99.90;;;;;;5208976;28;20433;-50
2023/12/23 07:57:05;;;;;;;11.13;1.37;;;2.60;99.90;;;;;;5210803;28;20426;-50
2023/12/23 07:59:36;;;;;;;1.57;0.90;;;2.60;99.90;;;;;;5211662;28;20199;-50
2023/12/23 08:02:06;;;;;;;3.00;0.60;;;2.70;99.90;;;;;;5217041;28;20477;-50
2023/12/23 08:04:38;;;;;;;4.63;1.20;;;2.70;99.90;;;;;;5209126;28;21592;-51
2023/12/23 08:07:09;;;;;;;0.90;0.90;;;2.70;99.90;;;;;;5209456;28;20698;-50
2023/12/23 08:09:39;;;;;;;2.50;0.90;;;2.70;99.90;;;;;;5212254;28;20465;-49
2023/12/23 08:12:11;;;;;;;1.33;0.70;;;2.70;99.90;;;;;;5221484;28;20473;-52
2023/12/23 08:14:43;;;;;;;12.00;1.40;;;2.60;99.90;;;;;;5214172;28;20203;-51
2023/12/23 08:17:14;;;;;;;4.10;0.93;;;2.60;99.90;;;;;;5220920;28;20804;-50
2023/12/23 08:19:45;;;;;;;4.23;0.80;;;2.70;99.90;;;;;;5211765;28;20648;-50
2023/12/23 08:22:18;;;;;;;2.53;1.27;;;2.70;99.90;;;;;;5200451;28;20214;-51
2023/12/23 08:24:49;;;;;;;4.00;1.20;;;2.70;99.90;;;;;;5222398;28;20210;-50
2023/12/23 08:27:20;;;;;;;3.00;1.30;;;2.70;99.90;;;;;;5221304;28;20443;-51
2023/12/23 08:29:51;;;;;;;3.90;0.80;;;2.70;99.90;;;;;;5220792;28;20188;-51
2023/12/23 08:32:22;;;;;;;8.07;1.00;;;2.70;99.90;;;;;;5214804;28;20304;-50
2023/12/23 08:34:52;;;;;;;0.83;0.77;;;2.70;99.90;;;;;;5221841;28;20433;-49
2023/12/23 08:37:23;;;;;;;1.40;1.03;;;2.70;99.90;;;;;;5211031;28;20674;-49
2023/12/23 08:39:54;;;;;;;5.07;1.43;;;2.80;99.90;;;;;;5215458;28;20183;-50
2023/12/23 08:42:25;;;;;;;8.53;1.77;;;2.90;99.90;;;;;;5225255;28;20584;-50
2023/12/23 08:44:56;;;;;;;6.03;1.10;;;2.90;99.90;;;;;;5226318;28;20424;-51
2023/12/23 08:47:26;;;;;;;4.10;1.20;;;2.90;99.90;;;;;;5220792;28;20671;-54
2023/12/23 08:49:57;;;;;;;6.03;1.20;;;2.90;99.90;;;;;;5222496;28;20577;-51
2023/12/23 08:52:28;;;;;;;3.73;1.17;;;2.90;99.90;;;;;;5209604;28;20253;-51
2023/12/23 08:54:59;;;;;;;2.17;1.50;;;2.90;99.90;;;;;;5212331;28;20182;-49
2023/12/23 08:57:30;;;;;;;2.10;0.87;;;3.00;99.90;;;;;;5212314;28;20670;-53
2023/12/23 09:00:01;;;;;;;3.07;1.10;;;3.00;99.90;;;;;;5223267;28;20266;-50
2023/12/23 09:02:31;;;;;;;9.53;1.90;;;3.00;99.90;;;;;;5224506;28;20475;-52
2023/12/23 09:05:02;;;;;;;3.67;1.43;;;3.00;99.90;;;;;;5211522;28;20175;-55
2023/12/23 09:07:33;;;;;;;3.37;1.80;;;2.90;99.90;;;;;;5211394;28;20261;-54
2023/12/23 09:10:05;;;;;;;10.17;1.57;;;3.10;99.90;;;;;;5222974;28;20550;-51
2023/12/23 09:12:36;;;;;;;1.40;1.10;;;3.00;99.90;;;;;;5224679;28;20223;-53
2023/12/23 09:15:07;;;;;;;9.43;2.00;;;3.10;99.90;;;;;;5208620;28;20838;-52
2023/12/23 09:17:38;;;;;;;3.33;1.67;;;3.00;99.90;;;;;;5222331;28;21220;-51
2023/12/23 09:20:10;;;;;;;6.03;1.47;;;3.00;99.90;;;;;;5226733;28;20520;-53
2023/12/23 09:22:41;;;;;;;3.13;1.40;;;3.10;99.90;;;;;;5223760;28;20226;-49
2023/12/23 09:25:12;;;;;;;4.53;1.70;;;3.00;99.90;;;;;;5222921;28;20468;-50
2023/12/23 09:27:42;;;;;;;2.97;1.37;;;3.10;99.90;;;;;;5220865;28;20643;-51
2023/12/23 09:30:14;;;;;;;5.73;1.17;;;3.10;99.90;;;;;;5204556;28;20568;-49
2023/12/23 09:32:45;;;;;;;2.90;1.20;;;3.10;99.90;;;;;;5217380;28;20282;-51
2023/12/23 09:35:16;;;;;;;6.10;1.50;;;3.00;99.90;;;;;;5218844;28;20882;-53
2023/12/23 09:37:47;;;;;;;4.23;1.10;;;3.00;99.90;;;;;;5223759;28;20183;-50
2023/12/23 09:40:18;;;;;;;11.10;1.20;;;2.80;99.90;;;;;;5225606;28;20774;-53
2023/12/23 09:42:49;;;;;;;0.60;0.60;;;2.80;99.90;;;;;;5220850;28;20216;-51
2023/12/23 09:45:22;;;;;;;2.30;1.23;;;2.70;99.90;;;;;;5202816;28;20256;-51
2023/12/23 09:47:53;;;;;;;2.00;1.13;;;2.60;99.90;;;;;;5201829;28;20437;-48
2023/12/23 09:50:24;;;;;;;4.57;0.90;;;2.60;99.90;;;;;;5224046;28;20429;-52
2023/12/23 09:52:58;;;;;;;3.90;1.07;;;2.60;99.90;;;;;;5223376;28;20210;-49
2023/12/23 09:55:31;;;;;;;0.63;0.63;;;2.50;99.90;;;;;;5214950;28;20438;-48
2023/12/23 09:58:01;;;;;;;3.50;1.17;;;2.50;99.90;;;;;;5222895;28;20971;-52
2023/12/23 10:00:33;;;;;;;5.43;1.20;;;2.40;99.90;;;;;;5222753;28;20445;-54
2023/12/23 10:03:04;;;;;;;7.00;1.60;;;2.40;99.90;;;;;;5209618;28;20211;-52
2023/12/23 10:05:41;;;;;;;1.50;0.80;;;2.40;99.90;;;;;;5209319;28;20444;-51
2023/12/23 10:08:13;;;;;;;0.87;0.87;;;2.40;99.90;;;;;;5226162;28;20237;-51
2023/12/23 10:10:46;;;;;;;1.73;0.80;;;2.40;99.90;;;;;;5224141;28;20515;-49
2023/12/23 10:13:17;;;;;;;1.70;0.80;;;2.50;99.90;;;;;;5210824;28;20598;-51
2023/12/23 10:15:48;;;;;;;3.90;1.40;;;2.40;99.90;;;;;;5211776;28;20441;-51
2023/12/23 10:18:18;;;;;;;4.63;1.00;;;2.40;99.90;;;;;;5223151;28;20194;-50
2023/12/23 10:20:49;;;;;;;1.60;0.77;;;2.40;99.90;;;;;;5191176;28;20177;-52
2023/12/23 10:23:20;;;;;;;1.73;1.63;;;2.30;99.90;;;;;;5221128;28;20209;-51
2023/12/23 10:25:51;;;;;;;3.30;1.00;;;2.30;99.90;;;;;;5204297;28;20205;-52
2023/12/23 10:28:25;;;;;;;2.63;0.83;;;2.30;99.90;;;;;;5186627;28;20215;-51
2023/12/23 10:31:01;;;;;;;1.80;0.97;;;2.40;99.90;;;;;;5185900;28;20479;-50
2023/12/23 10:33:38;;;;;;;8.50;1.27;;;2.40;99.90;;;;;;5209378;28;20510;-52
2023/12/23 10:36:13;;;;;;;2.40;1.00;;;2.30;99.90;;;;;;5219944;28;20774;-52
2023/12/23 10:38:51;;;;;;;1.00;0.60;;;2.20;99.90;;;;;;5206423;28;20448;-51
2023/12/23 10:41:48;;;;;;;5.53;1.50;;;2.20;99.90;;;;;;5218819;28;20472;-52
2023/12/23 10:44:19;;;;;;;2.10;1.50;;;2.20;99.90;;;;;;5206399;28;20440;-52
2023/12/23 10:46:51;;;;;;;1.10;1.10;;;2.20;99.90;;;;;;5220399;28;20440;-51
2023/12/23 10:49:24;;;;;;;1.60;1.53;;;2.10;99.90;;;;;;5210285;28;20445;-52
2023/12/23 10:51:56;;;;;;;4.80;1.90;;;2.10;99.90;;;;;;5206224;28;20469;-51
2023/12/23 10:54:28;;;;;;;1.67;1.27;;;2.10;99.90;;;;;;5217380;28;20457;-52
2023/12/23 10:57:01;;;;;;;3.33;2.43;;;2.10;99.90;;;;;;5202329;28;20532;-52
2023/12/23 10:59:31;;;;;;;2.63;1.60;;;2.00;99.90;;;;;;5201076;28;20449;-52
2023/12/23 11:02:13;;;;;;;3.13;1.30;;;2.00;99.90;;;;;;5213060;28;20480;-52
2023/12/23 11:04:48;;;;;;;1.53;1.30;;;2.00;99.90;;;;;;5211166;28;20441;-52
2023/12/23 11:07:24;;;;;;;1.23;1.20;;;2.10;99.90;;;;;;5221763;28;20933;-55
2023/12/23 11:10:00;;;;;;;2.93;1.03;;;2.00;99.90;;;;;;5203310;28;20468;-52
2023/12/23 11:12:31;;;;;;;0.90;0.90;;;2.00;99.90;;;;;;5198052;28;20478;-53
2023/12/23 11:15:02;;;;;;;3.60;0.87;;;2.00;99.90;;;;;;5204776;28;20432;-52
2023/12/23 11:17:40;;;;;;;2.93;1.20;;;2.10;99.90;;;;;;5205698;28;20532;-53
2023/12/23 11:20:31;;;;;;;3.57;0.90;;;2.10;99.90;;;;;;5205821;28;20438;-53
2023/12/23 11:23:27;;;;;;;3.10;1.83;;;2.00;99.90;;;;;;5202129;28;20477;-52
2023/12/23 11:25:58;;;;;;;4.37;0.47;;;2.00;99.90;;;;;;5217975;28;21015;-53
2023/12/23 11:28:32;;;;;;;0.90;0.90;;;1.90;99.90;;;;;;5219755;28;20926;-54
2023/12/23 11:31:03;;;;;;;1.23;0.87;;;2.00;99.90;;;;;;5202032;28;20442;-52
2023/12/23 11:33:37;;;;;;;2.33;2.13;;;2.00;99.90;;;;;;5222146;28;20949;-53
2023/12/23 11:36:08;;;;;;;0.90;0.90;;;1.90;99.90;;;;;;5221765;28;20421;-54
2023/12/23 11:38:46;;;;;;;3.93;1.43;;;1.80;99.90;;;;;;5207081;28;20464;-53
2023/12/23 11:41:20;;;;;;;1.00;1.00;;;1.90;99.90;;;;;;5220732;28;20205;-51
2023/12/23 11:43:52;;;;;;;0.77;0.77;;;1.90;99.90;;;;;;5209788;28;20465;-53
2023/12/23 11:46:24;;;;;;;3.67;2.90;;;1.90;99.90;;;;;;5219141;28;20437;-53
2023/12/23 11:49:00;;;;;;;1.70;1.70;;;1.90;99.90;;;;;;5222893;28;20440;-53
2023/12/23 11:51:31;;;;;;;5.73;1.60;;;1.90;99.90;;;;;;5223913;28;20453;-52
2023/12/23 11:54:02;;;;;;;2.70;1.73;;;1.90;99.90;;;;;;5207072;28;20465;-53
2023/12/23 11:56:33;;;;;;;1.90;1.80;;;1.90;99.90;;;;;;5214190;28;20221;-51
2023/12/23 11:59:05;;;;;;;7.87;2.60;;;1.90;99.90;;;;;;5207743;28;20946;-52
2023/12/23 12:01:36;;;;;;;0.80;0.80;;;1.90;99.90;;;;;;5214147;28;20499;-52
2023/12/23 12:04:08;;;;;;;2.77;2.00;;;1.80;99.90;;;;;;5226042;28;20442;-52
2023/12/23 12:06:39;;;;;;;2.40;1.30;;;1.80;99.90;;;;;;5220603;28;20186;-53
2023/12/23 12:09:09;;;;;;;1.10;0.90;;;1.80;99.90;;;;;;5220637;28;20433;-52
2023/12/23 12:11:40;;;;;;;1.00;1.00;;;1.80;99.90;;;;;;5219798;28;20187;-51
2023/12/23 12:14:11;;;;;;;2.30;1.00;;;1.60;99.90;;;;;;5223236;28;20281;-51
2023/12/23 12:16:42;;;;;;;1.07;1.07;;;1.70;99.90;;;;;;5208568;28;20225;-55
2023/12/23 12:19:13;;;;;;;1.73;0.80;;;1.70;99.90;;;;;;5225184;28;20465;-52
2023/12/23 12:21:44;;;;;;;1.07;1.07;;;1.70;99.90;;;;;;5209578;28;20214;-52
2023/12/23 12:24:15;;;;;;;0.83;0.70;;;1.70;99.90;;;;;;5210410;28;20437;-51
2023/12/23 12:26:52;;;;;;;1.70;1.47;;;1.70;99.90;;;;;;5208266;28;21428;-52
2023/12/23 12:29:23;;;;;;;2.53;1.30;;;1.70;99.90;;;;;;5210629;28;20187;-52
2023/12/23 12:31:57;;;;;;;2.50;1.13;;;1.60;99.90;;;;;;5207087;28;20461;-53
2023/12/23 12:34:28;;;;;;;3.10;0.60;;;1.60;99.90;;;;;;5223269;28;20443;-53
2023/12/23 12:36:59;;;;;;;7.70;0.90;;;1.60;99.90;;;;;;5210695;28;20522;-51
2023/12/23 12:39:30;;;;;;;1.60;0.70;;;1.60;99.90;;;;;;5227657;28;20453;-51
2023/12/23 12:42:01;;;;;;;1.37;0.97;;;1.60;99.90;;;;;;5210812;28;20214;-53
2023/12/23 12:44:33;;;;;;;10.63;0.93;;;1.70;99.90;;;;;;5223506;28;20183;-52
2023/12/23 12:47:04;;;;;;;1.73;0.70;;;1.70;99.90;;;;;;5224958;28;20640;-52
2023/12/23 12:49:41;;;;;;;3.60;1.70;;;1.80;99.90;;;;;;5225585;28;20434;-52
2023/12/23 12:52:12;;;;;;;2.37;1.03;;;1.70;99.90;;;;;;5221697;28;20547;-51
2023/12/23 12:54:43;;;;;;;1.17;1.03;;;1.80;99.90;;;;;;5208258;28;20508;-54
2023/12/23 12:57:13;;;;;;;1.40;1.20;;;1.70;99.90;;;;;;5226090;28;20194;-55
2023/12/23 12:59:44;;;;;;;4.67;1.43;;;1.80;99.90;;;;;;5211194;28;20183;-51
2023/12/23 13:02:16;;;;;;;2.00;1.30;;;1.90;99.90;;;;;;5224680;28;20287;-50
2023/12/23 13:04:47;;;;;;;2.20;1.40;;;1.80;99.90;;;;;;5210618;28;20583;-51
2023/12/23 13:07:18;;;;;;;4.33;1.70;;;1.90;99.90;;;;;;5222840;28;20437;-51
2023/12/23 13:09:49;;;;;;;2.73;1.33;;;1.80;99.90;;;;;;5225829;28;20417;-55
2023/12/23 13:12:20;;;;;;;1.77;1.40;;;1.80;99.90;;;;;;5226070;28;20301;-53
2023/12/23 13:14:50;;;;;;;7.40;2.63;;;1.80;99.90;;;;;;5209842;28;20183;-53
2023/12/23 13:17:21;;;;;;;1.80;1.70;;;1.90;99.90;;;;;;5226016;28;20282;-52